sensor_id;sensor_type;location;lat;lon;timestamp;P1;durP1;ratioP1;P2;durP2;ratioP2
32505;SDS011;18955;51.224;8.482;2022-11-27T00:00:56;4.30;;;1.77;;
32505;SDS011;18955;51.224;8.482;2022-11-27T00:03:23;3.78;;;2.83;;
32505;SDS011;18955;51.224;8.482;2022-11-27T00:05:50;5.30;;;2.75;;
32505;SDS011;18955;51.224;8.482;2022-11-27T00:08:18;8.50;;;3.13;;
32505;SDS011;18955;51.224;8.482;2022-11-27T00:10:44;5.10;;;2.17;;
32505;SDS011;18955;51.224;8.482;2022-11-27T00:13:10;6.63;;;3.47;;
32505;SDS011;18955;51.224;8.482;2022-11-27T00:15:36;6.75;;;3.25;;
32505;SDS011;18955;51.224;8.482;2022-11-27T00:18:03;7.00;;;3.17;;
32505;SDS011;18955;51.224;8.482;2022-11-27T00:20:29;6.40;;;3.53;;
32505;SDS011;18955;51.224;8.482;2022-11-27T00:22:55;6.07;;;3.42;;
32505;SDS011;18955;51.224;8.482;2022-11-27T00:25:21;4.07;;;2.30;;
32505;SDS011;18955;51.224;8.482;2022-11-27T00:27:47;8.55;;;4.15;;
32505;SDS011;18955;51.224;8.482;2022-11-27T00:30:14;5.40;;;2.95;;
32505;SDS011;18955;51.224;8.482;2022-11-27T00:32:40;7.88;;;3.92;;
32505;SDS011;18955;51.224;8.482;2022-11-27T00:35:06;6.15;;;3.70;;
32505;SDS011;18955;51.224;8.482;2022-11-27T00:37:33;5.40;;;3.78;;
32505;SDS011;18955;51.224;8.482;2022-11-27T00:39:59;10.55;;;4.57;;
32505;SDS011;18955;51.224;8.482;2022-11-27T00:42:25;5.53;;;3.22;;
32505;SDS011;18955;51.224;8.482;2022-11-27T00:44:51;7.70;;;4.05;;
32505;SDS011;18955;51.224;8.482;2022-11-27T00:47:18;10.05;;;4.70;;
32505;SDS011;18955;51.224;8.482;2022-11-27T00:49:44;5.95;;;3.10;;
32505;SDS011;18955;51.224;8.482;2022-11-27T00:52:11;8.85;;;4.25;;
32505;SDS011;18955;51.224;8.482;2022-11-27T00:54:37;7.65;;;4.22;;
32505;SDS011;18955;51.224;8.482;2022-11-27T00:57:03;7.38;;;4.53;;
32505;SDS011;18955;51.224;8.482;2022-11-27T00:59:30;9.30;;;5.00;;
32505;SDS011;18955;51.224;8.482;2022-11-27T01:01:56;8.35;;;4.55;;
32505;SDS011;18955;51.224;8.482;2022-11-27T01:04:22;7.15;;;4.85;;
32505;SDS011;18955;51.224;8.482;2022-11-27T01:06:49;9.82;;;4.75;;
32505;SDS011;18955;51.224;8.482;2022-11-27T01:09:15;4.30;;;3.17;;
32505;SDS011;18955;51.224;8.482;2022-11-27T01:11:41;8.15;;;4.82;;
32505;SDS011;18955;51.224;8.482;2022-11-27T01:14:13;16.67;;;4.85;;
32505;SDS011;18955;51.224;8.482;2022-11-27T01:16:43;8.27;;;4.22;;
32505;SDS011;18955;51.224;8.482;2022-11-27T01:19:10;7.68;;;4.93;;
32505;SDS011;18955;51.224;8.482;2022-11-27T01:21:37;10.23;;;4.40;;
32505;SDS011;18955;51.224;8.482;2022-11-27T01:24:04;6.20;;;4.22;;
32505;SDS011;18955;51.224;8.482;2022-11-27T01:26:30;8.07;;;4.72;;
32505;SDS011;18955;51.224;8.482;2022-11-27T01:28:57;9.88;;;3.95;;
32505;SDS011;18955;51.224;8.482;2022-11-27T01:31:25;6.35;;;4.22;;
32505;SDS011;18955;51.224;8.482;2022-11-27T01:33:54;9.57;;;4.05;;
32505;SDS011;18955;51.224;8.482;2022-11-27T01:36:22;7.63;;;4.82;;
32505;SDS011;18955;51.224;8.482;2022-11-27T01:41:20;11.05;;;4.53;;
32505;SDS011;18955;51.224;8.482;2022-11-27T01:44:44;7.90;;;4.60;;
32505;SDS011;18955;51.224;8.482;2022-11-27T01:46:50;9.05;;;5.22;;
32505;SDS011;18955;51.224;8.482;2022-11-27T01:49:25;5.85;;;4.40;;
32505;SDS011;18955;51.224;8.482;2022-11-27T01:52:02;9.02;;;4.80;;
32505;SDS011;18955;51.224;8.482;2022-11-27T01:54:46;11.13;;;5.05;;
32505;SDS011;18955;51.224;8.482;2022-11-27T02:00:18;8.18;;;5.03;;
32505;SDS011;18955;51.224;8.482;2022-11-27T02:02:45;6.95;;;4.22;;
32505;SDS011;18955;51.224;8.482;2022-11-27T02:05:15;6.68;;;4.15;;
32505;SDS011;18955;51.224;8.482;2022-11-27T02:07:44;9.60;;;5.03;;
32505;SDS011;18955;51.224;8.482;2022-11-27T02:15:23;6.00;;;4.28;;
32505;SDS011;18955;51.224;8.482;2022-11-27T02:23:55;10.10;;;4.70;;
32505;SDS011;18955;51.224;8.482;2022-11-27T02:29:05;7.55;;;3.80;;
32505;SDS011;18955;51.224;8.482;2022-11-27T02:42:26;5.50;;;4.05;;
32505;SDS011;18955;51.224;8.482;2022-11-27T02:45:11;7.43;;;3.92;;
32505;SDS011;18955;51.224;8.482;2022-11-27T02:47:40;6.38;;;3.97;;
32505;SDS011;18955;51.224;8.482;2022-11-27T02:50:11;7.65;;;3.75;;
32505;SDS011;18955;51.224;8.482;2022-11-27T02:52:43;5.45;;;3.97;;
32505;SDS011;18955;51.224;8.482;2022-11-27T02:55:13;4.43;;;3.40;;
32505;SDS011;18955;51.224;8.482;2022-11-27T02:57:44;7.10;;;3.70;;
32505;SDS011;18955;51.224;8.482;2022-11-27T03:00:11;6.03;;;4.13;;
32505;SDS011;18955;51.224;8.482;2022-11-27T03:02:40;7.32;;;3.30;;
32505;SDS011;18955;51.224;8.482;2022-11-27T03:05:12;7.43;;;3.90;;
32505;SDS011;18955;51.224;8.482;2022-11-27T03:07:42;7.72;;;4.00;;
32505;SDS011;18955;51.224;8.482;2022-11-27T03:10:17;7.88;;;3.65;;
32505;SDS011;18955;51.224;8.482;2022-11-27T03:12:46;7.28;;;3.60;;
32505;SDS011;18955;51.224;8.482;2022-11-27T03:15:14;9.02;;;4.25;;
32505;SDS011;18955;51.224;8.482;2022-11-27T03:20:29;5.38;;;3.45;;
32505;SDS011;18955;51.224;8.482;2022-11-27T03:23:01;9.13;;;3.38;;
32505;SDS011;18955;51.224;8.482;2022-11-27T03:25:28;8.73;;;3.88;;
32505;SDS011;18955;51.224;8.482;2022-11-27T03:27:55;11.43;;;4.10;;
32505;SDS011;18955;51.224;8.482;2022-11-27T03:30:27;4.85;;;3.20;;
32505;SDS011;18955;51.224;8.482;2022-11-27T03:32:53;11.20;;;4.32;;
32505;SDS011;18955;51.224;8.482;2022-11-27T03:35:21;5.75;;;3.40;;
32505;SDS011;18955;51.224;8.482;2022-11-27T03:37:49;9.43;;;3.78;;
32505;SDS011;18955;51.224;8.482;2022-11-27T03:40:16;6.40;;;3.03;;
32505;SDS011;18955;51.224;8.482;2022-11-27T03:53:41;6.45;;;4.40;;
32505;SDS011;18955;51.224;8.482;2022-11-27T03:58:50;7.07;;;3.85;;
32505;SDS011;18955;51.224;8.482;2022-11-27T04:01:20;7.32;;;4.13;;
32505;SDS011;18955;51.224;8.482;2022-11-27T04:03:49;9.48;;;4.45;;
32505;SDS011;18955;51.224;8.482;2022-11-27T04:06:15;8.07;;;4.82;;
32505;SDS011;18955;51.224;8.482;2022-11-27T04:11:08;8.18;;;5.32;;
32505;SDS011;18955;51.224;8.482;2022-11-27T04:13:35;7.53;;;5.43;;
32505;SDS011;18955;51.224;8.482;2022-11-27T04:16:02;10.30;;;5.57;;
32505;SDS011;18955;51.224;8.482;2022-11-27T04:20:54;5.55;;;3.35;;
32505;SDS011;18955;51.224;8.482;2022-11-27T04:23:20;9.48;;;5.82;;
32505;SDS011;18955;51.224;8.482;2022-11-27T04:25:47;10.43;;;6.53;;
32505;SDS011;18955;51.224;8.482;2022-11-27T04:28:14;13.82;;;6.97;;
32505;SDS011;18955;51.224;8.482;2022-11-27T04:30:42;10.70;;;6.05;;
32505;SDS011;18955;51.224;8.482;2022-11-27T04:33:09;9.00;;;5.43;;
32505;SDS011;18955;51.224;8.482;2022-11-27T04:35:35;7.97;;;5.57;;
32505;SDS011;18955;51.224;8.482;2022-11-27T04:38:01;14.90;;;6.47;;
32505;SDS011;18955;51.224;8.482;2022-11-27T04:40:27;11.48;;;6.53;;
32505;SDS011;18955;51.224;8.482;2022-11-27T04:42:54;6.75;;;4.43;;
32505;SDS011;18955;51.224;8.482;2022-11-27T04:45:20;12.82;;;6.18;;
32505;SDS011;18955;51.224;8.482;2022-11-27T04:47:46;11.63;;;7.20;;
32505;SDS011;18955;51.224;8.482;2022-11-27T04:50:12;9.95;;;6.13;;
32505;SDS011;18955;51.224;8.482;2022-11-27T04:52:38;11.90;;;6.93;;
32505;SDS011;18955;51.224;8.482;2022-11-27T04:55:05;7.30;;;4.78;;
32505;SDS011;18955;51.224;8.482;2022-11-27T04:57:31;9.68;;;6.60;;
32505;SDS011;18955;51.224;8.482;2022-11-27T04:59:58;7.47;;;4.97;;
32505;SDS011;18955;51.224;8.482;2022-11-27T05:02:24;11.85;;;7.35;;
32505;SDS011;18955;51.224;8.482;2022-11-27T05:04:50;9.68;;;5.15;;
32505;SDS011;18955;51.224;8.482;2022-11-27T05:07:16;12.05;;;7.32;;
32505;SDS011;18955;51.224;8.482;2022-11-27T05:09:42;11.27;;;6.45;;
32505;SDS011;18955;51.224;8.482;2022-11-27T05:12:09;12.43;;;6.32;;
32505;SDS011;18955;51.224;8.482;2022-11-27T05:14:35;10.27;;;6.13;;
32505;SDS011;18955;51.224;8.482;2022-11-27T05:17:01;11.45;;;5.82;;
32505;SDS011;18955;51.224;8.482;2022-11-27T05:19:28;13.30;;;6.75;;
32505;SDS011;18955;51.224;8.482;2022-11-27T05:21:55;11.73;;;5.88;;
32505;SDS011;18955;51.224;8.482;2022-11-27T05:24:23;10.57;;;5.70;;
32505;SDS011;18955;51.224;8.482;2022-11-27T05:26:51;11.20;;;6.47;;
32505;SDS011;18955;51.224;8.482;2022-11-27T05:29:18;7.85;;;5.35;;
32505;SDS011;18955;51.224;8.482;2022-11-27T05:31:45;7.53;;;5.10;;
32505;SDS011;18955;51.224;8.482;2022-11-27T05:34:12;6.82;;;4.18;;
32505;SDS011;18955;51.224;8.482;2022-11-27T05:39:05;7.88;;;4.97;;
32505;SDS011;18955;51.224;8.482;2022-11-27T05:41:33;8.38;;;5.72;;
32505;SDS011;18955;51.224;8.482;2022-11-27T05:44:00;9.25;;;5.65;;
32505;SDS011;18955;51.224;8.482;2022-11-27T05:46:26;9.60;;;5.78;;
32505;SDS011;18955;51.224;8.482;2022-11-27T05:48:52;9.55;;;5.57;;
32505;SDS011;18955;51.224;8.482;2022-11-27T05:51:19;11.70;;;5.05;;
32505;SDS011;18955;51.224;8.482;2022-11-27T05:53:45;5.45;;;4.18;;
32505;SDS011;18955;51.224;8.482;2022-11-27T05:56:12;8.40;;;5.43;;
32505;SDS011;18955;51.224;8.482;2022-11-27T05:58:41;8.32;;;4.70;;
32505;SDS011;18955;51.224;8.482;2022-11-27T06:01:09;10.57;;;5.07;;
32505;SDS011;18955;51.224;8.482;2022-11-27T06:03:37;9.13;;;5.50;;
32505;SDS011;18955;51.224;8.482;2022-11-27T06:06:06;14.50;;;5.18;;
32505;SDS011;18955;51.224;8.482;2022-11-27T06:08:38;9.68;;;4.68;;
32505;SDS011;18955;51.224;8.482;2022-11-27T06:11:08;8.55;;;4.57;;
32505;SDS011;18955;51.224;8.482;2022-11-27T06:13:36;10.95;;;4.85;;
32505;SDS011;18955;51.224;8.482;2022-11-27T06:16:03;8.70;;;5.20;;
32505;SDS011;18955;51.224;8.482;2022-11-27T06:18:37;10.73;;;4.78;;
32505;SDS011;18955;51.224;8.482;2022-11-27T06:21:09;7.03;;;3.88;;
32505;SDS011;18955;51.224;8.482;2022-11-27T06:23:38;7.68;;;4.88;;
32505;SDS011;18955;51.224;8.482;2022-11-27T06:28:38;8.73;;;4.65;;
32505;SDS011;18955;51.224;8.482;2022-11-27T06:31:06;11.20;;;5.75;;
32505;SDS011;18955;51.224;8.482;2022-11-27T06:33:33;8.75;;;4.38;;
32505;SDS011;18955;51.224;8.482;2022-11-27T06:36:00;10.30;;;5.32;;
32505;SDS011;18955;51.224;8.482;2022-11-27T06:38:27;7.80;;;4.40;;
32505;SDS011;18955;51.224;8.482;2022-11-27T06:40:53;5.93;;;4.55;;
32505;SDS011;18955;51.224;8.482;2022-11-27T06:43:20;10.20;;;4.88;;
32505;SDS011;18955;51.224;8.482;2022-11-27T06:45:53;8.40;;;4.93;;
32505;SDS011;18955;51.224;8.482;2022-11-27T06:48:20;8.35;;;5.15;;
32505;SDS011;18955;51.224;8.482;2022-11-27T06:50:47;11.25;;;5.22;;
32505;SDS011;18955;51.224;8.482;2022-11-27T06:53:13;7.35;;;4.65;;
32505;SDS011;18955;51.224;8.482;2022-11-27T06:55:39;5.38;;;3.65;;
32505;SDS011;18955;51.224;8.482;2022-11-27T06:58:05;8.73;;;4.25;;
32505;SDS011;18955;51.224;8.482;2022-11-27T07:00:31;8.68;;;4.88;;
32505;SDS011;18955;51.224;8.482;2022-11-27T07:02:57;6.43;;;3.95;;
32505;SDS011;18955;51.224;8.482;2022-11-27T07:05:24;13.25;;;5.28;;
32505;SDS011;18955;51.224;8.482;2022-11-27T07:07:50;9.52;;;5.03;;
32505;SDS011;18955;51.224;8.482;2022-11-27T07:10:16;3.72;;;3.08;;
32505;SDS011;18955;51.224;8.482;2022-11-27T07:12:42;5.22;;;3.22;;
32505;SDS011;18955;51.224;8.482;2022-11-27T07:15:08;9.85;;;3.58;;
32505;SDS011;18955;51.224;8.482;2022-11-27T07:17:34;9.75;;;4.47;;
32505;SDS011;18955;51.224;8.482;2022-11-27T07:20:02;9.18;;;4.70;;
32505;SDS011;18955;51.224;8.482;2022-11-27T07:22:30;8.32;;;4.88;;
32505;SDS011;18955;51.224;8.482;2022-11-27T07:24:57;6.97;;;4.03;;
32505;SDS011;18955;51.224;8.482;2022-11-27T07:27:23;6.72;;;3.33;;
32505;SDS011;18955;51.224;8.482;2022-11-27T07:29:49;9.63;;;4.57;;
32505;SDS011;18955;51.224;8.482;2022-11-27T07:32:15;8.68;;;5.05;;
32505;SDS011;18955;51.224;8.482;2022-11-27T07:34:41;10.32;;;4.80;;
32505;SDS011;18955;51.224;8.482;2022-11-27T07:37:07;6.00;;;4.53;;
32505;SDS011;18955;51.224;8.482;2022-11-27T07:39:34;7.85;;;4.90;;
32505;SDS011;18955;51.224;8.482;2022-11-27T07:42:00;5.13;;;2.97;;
32505;SDS011;18955;51.224;8.482;2022-11-27T07:44:26;7.15;;;4.50;;
32505;SDS011;18955;51.224;8.482;2022-11-27T07:46:52;9.35;;;2.85;;
32505;SDS011;18955;51.224;8.482;2022-11-27T07:49:18;10.07;;;4.90;;
32505;SDS011;18955;51.224;8.482;2022-11-27T07:51:45;5.57;;;2.75;;
32505;SDS011;18955;51.224;8.482;2022-11-27T07:54:11;7.15;;;2.92;;
32505;SDS011;18955;51.224;8.482;2022-11-27T07:56:37;8.75;;;4.10;;
32505;SDS011;18955;51.224;8.482;2022-11-27T07:59:03;10.48;;;4.45;;
32505;SDS011;18955;51.224;8.482;2022-11-27T08:01:29;7.50;;;4.40;;
32505;SDS011;18955;51.224;8.482;2022-11-27T08:03:55;9.85;;;4.53;;
32505;SDS011;18955;51.224;8.482;2022-11-27T08:06:23;6.72;;;4.25;;
32505;SDS011;18955;51.224;8.482;2022-11-27T08:08:51;9.00;;;4.55;;
32505;SDS011;18955;51.224;8.482;2022-11-27T08:13:55;6.82;;;4.53;;
32505;SDS011;18955;51.224;8.482;2022-11-27T08:16:23;7.75;;;4.63;;
32505;SDS011;18955;51.224;8.482;2022-11-27T08:18:49;9.60;;;4.53;;
32505;SDS011;18955;51.224;8.482;2022-11-27T08:21:15;3.65;;;2.58;;
32505;SDS011;18955;51.224;8.482;2022-11-27T08:23:41;6.22;;;4.03;;
32505;SDS011;18955;51.224;8.482;2022-11-27T08:26:08;5.25;;;3.95;;
32505;SDS011;18955;51.224;8.482;2022-11-27T08:28:35;9.80;;;4.20;;
32505;SDS011;18955;51.224;8.482;2022-11-27T08:31:03;6.40;;;4.03;;
32505;SDS011;18955;51.224;8.482;2022-11-27T08:33:30;6.30;;;4.10;;
32505;SDS011;18955;51.224;8.482;2022-11-27T08:38:23;6.30;;;3.97;;
32505;SDS011;18955;51.224;8.482;2022-11-27T08:40:53;4.32;;;2.65;;
32505;SDS011;18955;51.224;8.482;2022-11-27T08:43:24;8.20;;;4.25;;
32505;SDS011;18955;51.224;8.482;2022-11-27T08:48:17;4.57;;;3.17;;
32505;SDS011;18955;51.224;8.482;2022-11-27T08:50:44;8.32;;;3.78;;
32505;SDS011;18955;51.224;8.482;2022-11-27T08:53:11;6.95;;;3.83;;
32505;SDS011;18955;51.224;8.482;2022-11-27T08:55:37;6.55;;;4.05;;
32505;SDS011;18955;51.224;8.482;2022-11-27T08:58:04;5.82;;;3.88;;
32505;SDS011;18955;51.224;8.482;2022-11-27T09:00:31;9.18;;;4.53;;
32505;SDS011;18955;51.224;8.482;2022-11-27T09:02:58;9.52;;;4.57;;
32505;SDS011;18955;51.224;8.482;2022-11-27T09:05:25;8.30;;;4.10;;
32505;SDS011;18955;51.224;8.482;2022-11-27T09:07:52;8.55;;;4.32;;
32505;SDS011;18955;51.224;8.482;2022-11-27T09:12:47;7.00;;;4.72;;
32505;SDS011;18955;51.224;8.482;2022-11-27T09:15:14;9.93;;;4.82;;
32505;SDS011;18955;51.224;8.482;2022-11-27T09:17:41;7.20;;;4.35;;
32505;SDS011;18955;51.224;8.482;2022-11-27T09:20:07;6.78;;;4.38;;
32505;SDS011;18955;51.224;8.482;2022-11-27T09:25:00;8.57;;;3.55;;
32505;SDS011;18955;51.224;8.482;2022-11-27T09:27:27;7.32;;;3.58;;
32505;SDS011;18955;51.224;8.482;2022-11-27T09:29:53;7.93;;;3.90;;
32505;SDS011;18955;51.224;8.482;2022-11-27T09:32:20;6.22;;;3.10;;
32505;SDS011;18955;51.224;8.482;2022-11-27T09:34:47;7.70;;;3.22;;
32505;SDS011;18955;51.224;8.482;2022-11-27T09:37:15;8.57;;;3.50;;
32505;SDS011;18955;51.224;8.482;2022-11-27T09:39:41;7.68;;;3.95;;
32505;SDS011;18955;51.224;8.482;2022-11-27T09:42:09;5.45;;;2.67;;
32505;SDS011;18955;51.224;8.482;2022-11-27T09:44:43;7.22;;;3.58;;
32505;SDS011;18955;51.224;8.482;2022-11-27T09:47:18;8.65;;;3.42;;
32505;SDS011;18955;51.224;8.482;2022-11-27T09:49:53;7.68;;;3.80;;
32505;SDS011;18955;51.224;8.482;2022-11-27T09:52:30;6.93;;;3.80;;
32505;SDS011;18955;51.224;8.482;2022-11-27T09:55:43;7.78;;;4.10;;
32505;SDS011;18955;51.224;8.482;2022-11-27T09:58:14;9.30;;;4.35;;
32505;SDS011;18955;51.224;8.482;2022-11-27T10:00:45;6.68;;;3.80;;
32505;SDS011;18955;51.224;8.482;2022-11-27T10:03:16;8.30;;;3.90;;
32505;SDS011;18955;51.224;8.482;2022-11-27T10:16:58;10.52;;;3.58;;
32505;SDS011;18955;51.224;8.482;2022-11-27T10:30:27;6.85;;;2.70;;
32505;SDS011;18955;51.224;8.482;2022-11-27T10:32:57;10.15;;;2.95;;
32505;SDS011;18955;51.224;8.482;2022-11-27T10:35:26;5.53;;;2.40;;
32505;SDS011;18955;51.224;8.482;2022-11-27T10:38:09;10.10;;;3.33;;
32505;SDS011;18955;51.224;8.482;2022-11-27T10:41:13;5.90;;;2.15;;
32505;SDS011;18955;51.224;8.482;2022-11-27T10:43:34;7.20;;;1.90;;
32505;SDS011;18955;51.224;8.482;2022-11-27T10:48:29;3.35;;;1.92;;
32505;SDS011;18955;51.224;8.482;2022-11-27T10:50:55;4.93;;;2.20;;
32505;SDS011;18955;51.224;8.482;2022-11-27T10:58:43;3.95;;;1.80;;
32505;SDS011;18955;51.224;8.482;2022-11-27T11:01:21;6.00;;;2.05;;
32505;SDS011;18955;51.224;8.482;2022-11-27T11:03:48;8.68;;;2.17;;
32505;SDS011;18955;51.224;8.482;2022-11-27T11:06:20;6.22;;;2.20;;
32505;SDS011;18955;51.224;8.482;2022-11-27T11:09:03;7.22;;;2.40;;
32505;SDS011;18955;51.224;8.482;2022-11-27T11:11:40;6.72;;;2.45;;
32505;SDS011;18955;51.224;8.482;2022-11-27T11:14:25;3.75;;;1.73;;
32505;SDS011;18955;51.224;8.482;2022-11-27T11:16:52;6.28;;;2.40;;
32505;SDS011;18955;51.224;8.482;2022-11-27T11:21:58;7.45;;;2.70;;
32505;SDS011;18955;51.224;8.482;2022-11-27T11:24:32;5.20;;;2.58;;
32505;SDS011;18955;51.224;8.482;2022-11-27T11:27:14;4.88;;;2.40;;
32505;SDS011;18955;51.224;8.482;2022-11-27T11:30:03;6.00;;;2.45;;
32505;SDS011;18955;51.224;8.482;2022-11-27T11:32:36;7.03;;;2.25;;
32505;SDS011;18955;51.224;8.482;2022-11-27T11:35:49;6.82;;;2.30;;
32505;SDS011;18955;51.224;8.482;2022-11-27T11:37:59;6.40;;;1.90;;
32505;SDS011;18955;51.224;8.482;2022-11-27T11:40:30;4.30;;;2.13;;
32505;SDS011;18955;51.224;8.482;2022-11-27T11:42:59;4.00;;;2.10;;
32505;SDS011;18955;51.224;8.482;2022-11-27T11:45:28;7.28;;;2.03;;
32505;SDS011;18955;51.224;8.482;2022-11-27T11:47:59;6.80;;;2.63;;
32505;SDS011;18955;51.224;8.482;2022-11-27T11:50:51;5.10;;;2.03;;
32505;SDS011;18955;51.224;8.482;2022-11-27T11:56:06;6.30;;;2.15;;
32505;SDS011;18955;51.224;8.482;2022-11-27T12:15:28;4.65;;;2.03;;
32505;SDS011;18955;51.224;8.482;2022-11-27T12:20:56;8.48;;;2.53;;
32505;SDS011;18955;51.224;8.482;2022-11-27T12:23:41;8.25;;;2.25;;
32505;SDS011;18955;51.224;8.482;2022-11-27T12:26:52;4.80;;;2.08;;
32505;SDS011;18955;51.224;8.482;2022-11-27T12:37:33;5.80;;;2.78;;
32505;SDS011;18955;51.224;8.482;2022-11-27T12:40:36;7.07;;;2.17;;
32505;SDS011;18955;51.224;8.482;2022-11-27T12:43:11;5.68;;;2.10;;
32505;SDS011;18955;51.224;8.482;2022-11-27T12:50:57;4.53;;;2.10;;
32505;SDS011;18955;51.224;8.482;2022-11-27T12:53:30;4.03;;;1.90;;
32505;SDS011;18955;51.224;8.482;2022-11-27T12:58:40;5.93;;;2.20;;
32505;SDS011;18955;51.224;8.482;2022-11-27T13:01:12;7.07;;;2.58;;
32505;SDS011;18955;51.224;8.482;2022-11-27T13:06:28;5.28;;;2.20;;
32505;SDS011;18955;51.224;8.482;2022-11-27T13:09:02;3.53;;;2.08;;
32505;SDS011;18955;51.224;8.482;2022-11-27T13:11:39;5.78;;;2.17;;
32505;SDS011;18955;51.224;8.482;2022-11-27T13:14:09;4.45;;;1.90;;
32505;SDS011;18955;51.224;8.482;2022-11-27T13:16:46;5.15;;;2.45;;
32505;SDS011;18955;51.224;8.482;2022-11-27T13:19:32;3.83;;;2.08;;
32505;SDS011;18955;51.224;8.482;2022-11-27T13:22:12;7.45;;;2.38;;
32505;SDS011;18955;51.224;8.482;2022-11-27T13:24:41;6.22;;;2.10;;
32505;SDS011;18955;51.224;8.482;2022-11-27T13:27:09;5.03;;;2.10;;
32505;SDS011;18955;51.224;8.482;2022-11-27T13:32:15;5.68;;;2.58;;
32505;SDS011;18955;51.224;8.482;2022-11-27T13:34:49;6.45;;;2.58;;
32505;SDS011;18955;51.224;8.482;2022-11-27T13:37:23;4.13;;;2.40;;
32505;SDS011;18955;51.224;8.482;2022-11-27T13:42:50;5.32;;;2.42;;
32505;SDS011;18955;51.224;8.482;2022-11-27T13:47:53;3.47;;;1.92;;
32505;SDS011;18955;51.224;8.482;2022-11-27T13:50:21;5.63;;;2.30;;
32505;SDS011;18955;51.224;8.482;2022-11-27T13:52:57;5.68;;;2.45;;
32505;SDS011;18955;51.224;8.482;2022-11-27T13:55:37;5.88;;;2.70;;
32505;SDS011;18955;51.224;8.482;2022-11-27T13:58:26;7.28;;;2.75;;
32505;SDS011;18955;51.224;8.482;2022-11-27T14:00:53;7.75;;;3.20;;
32505;SDS011;18955;51.224;8.482;2022-11-27T14:03:27;7.20;;;2.55;;
32505;SDS011;18955;51.224;8.482;2022-11-27T14:05:55;6.88;;;2.97;;
32505;SDS011;18955;51.224;8.482;2022-11-27T14:08:26;6.88;;;3.13;;
32505;SDS011;18955;51.224;8.482;2022-11-27T14:11:02;7.05;;;2.72;;
32505;SDS011;18955;51.224;8.482;2022-11-27T14:13:44;6.32;;;3.15;;
32505;SDS011;18955;51.224;8.482;2022-11-27T14:18:57;7.75;;;3.05;;
32505;SDS011;18955;51.224;8.482;2022-11-27T14:24:23;8.65;;;2.95;;
32505;SDS011;18955;51.224;8.482;2022-11-27T14:26:50;10.07;;;3.45;;
32505;SDS011;18955;51.224;8.482;2022-11-27T14:29:22;8.23;;;3.03;;
32505;SDS011;18955;51.224;8.482;2022-11-27T14:31:59;7.97;;;3.55;;
32505;SDS011;18955;51.224;8.482;2022-11-27T14:36:57;7.45;;;2.95;;
32505;SDS011;18955;51.224;8.482;2022-11-27T14:39:28;8.27;;;3.40;;
32505;SDS011;18955;51.224;8.482;2022-11-27T14:41:59;7.60;;;2.88;;
32505;SDS011;18955;51.224;8.482;2022-11-27T14:44:30;8.65;;;3.42;;
32505;SDS011;18955;51.224;8.482;2022-11-27T14:47:00;7.55;;;3.58;;
32505;SDS011;18955;51.224;8.482;2022-11-27T14:49:30;4.68;;;3.08;;
32505;SDS011;18955;51.224;8.482;2022-11-27T14:52:03;7.70;;;3.28;;
32505;SDS011;18955;51.224;8.482;2022-11-27T14:54:35;7.30;;;3.58;;
32505;SDS011;18955;51.224;8.482;2022-11-27T14:57:04;5.85;;;3.00;;
32505;SDS011;18955;51.224;8.482;2022-11-27T14:59:31;8.98;;;3.55;;
32505;SDS011;18955;51.224;8.482;2022-11-27T15:02:00;5.50;;;3.22;;
32505;SDS011;18955;51.224;8.482;2022-11-27T15:04:36;7.15;;;3.72;;
32505;SDS011;18955;51.224;8.482;2022-11-27T15:07:04;7.18;;;2.67;;
32505;SDS011;18955;51.224;8.482;2022-11-27T15:09:46;5.15;;;3.20;;
32505;SDS011;18955;51.224;8.482;2022-11-27T15:17:49;7.15;;;3.60;;
32505;SDS011;18955;51.224;8.482;2022-11-27T15:20:26;5.35;;;3.40;;
32505;SDS011;18955;51.224;8.482;2022-11-27T15:22:58;6.28;;;3.30;;
32505;SDS011;18955;51.224;8.482;2022-11-27T15:25:31;6.35;;;3.30;;
32505;SDS011;18955;51.224;8.482;2022-11-27T15:28:01;5.28;;;3.25;;
32505;SDS011;18955;51.224;8.482;2022-11-27T15:30:28;7.68;;;3.45;;
32505;SDS011;18955;51.224;8.482;2022-11-27T15:32:54;6.25;;;2.42;;
32505;SDS011;18955;51.224;8.482;2022-11-27T15:37:56;6.38;;;3.50;;
32505;SDS011;18955;51.224;8.482;2022-11-27T15:40:31;5.03;;;3.20;;
32505;SDS011;18955;51.224;8.482;2022-11-27T15:43:08;5.28;;;2.92;;
32505;SDS011;18955;51.224;8.482;2022-11-27T15:45:36;3.83;;;2.90;;
32505;SDS011;18955;51.224;8.482;2022-11-27T15:50:29;8.93;;;2.92;;
32505;SDS011;18955;51.224;8.482;2022-11-27T15:52:56;10.25;;;3.20;;
32505;SDS011;18955;51.224;8.482;2022-11-27T15:55:22;10.00;;;3.15;;
32505;SDS011;18955;51.224;8.482;2022-11-27T15:57:49;4.78;;;2.55;;
32505;SDS011;18955;51.224;8.482;2022-11-27T16:00:15;9.45;;;3.22;;
32505;SDS011;18955;51.224;8.482;2022-11-27T16:05:08;5.30;;;2.85;;
32505;SDS011;18955;51.224;8.482;2022-11-27T16:07:34;10.20;;;2.85;;
32505;SDS011;18955;51.224;8.482;2022-11-27T16:10:00;4.63;;;2.15;;
32505;SDS011;18955;51.224;8.482;2022-11-27T16:12:26;9.02;;;3.55;;
32505;SDS011;18955;51.224;8.482;2022-11-27T16:14:53;5.75;;;3.72;;
32505;SDS011;18955;51.224;8.482;2022-11-27T16:17:19;5.20;;;2.67;;
32505;SDS011;18955;51.224;8.482;2022-11-27T16:19:46;7.97;;;3.53;;
32505;SDS011;18955;51.224;8.482;2022-11-27T16:22:12;4.85;;;3.08;;
32505;SDS011;18955;51.224;8.482;2022-11-27T16:24:39;8.52;;;2.90;;
32505;SDS011;18955;51.224;8.482;2022-11-27T16:27:05;6.40;;;3.45;;
32505;SDS011;18955;51.224;8.482;2022-11-27T16:29:31;4.75;;;2.15;;
32505;SDS011;18955;51.224;8.482;2022-11-27T16:31:58;6.38;;;3.30;;
32505;SDS011;18955;51.224;8.482;2022-11-27T16:34:24;6.53;;;3.42;;
32505;SDS011;18955;51.224;8.482;2022-11-27T16:39:17;6.20;;;3.13;;
32505;SDS011;18955;51.224;8.482;2022-11-27T16:41:44;9.70;;;3.38;;
32505;SDS011;18955;51.224;8.482;2022-11-27T16:44:11;5.82;;;3.20;;
32505;SDS011;18955;51.224;8.482;2022-11-27T16:46:39;4.78;;;3.03;;
32505;SDS011;18955;51.224;8.482;2022-11-27T16:49:06;5.35;;;3.03;;
32505;SDS011;18955;51.224;8.482;2022-11-27T16:51:33;6.45;;;2.85;;
32505;SDS011;18955;51.224;8.482;2022-11-27T16:54:02;4.97;;;3.13;;
32505;SDS011;18955;51.224;8.482;2022-11-27T16:56:31;6.68;;;3.30;;
32505;SDS011;18955;51.224;8.482;2022-11-27T16:58:59;7.03;;;3.35;;
32505;SDS011;18955;51.224;8.482;2022-11-27T17:01:29;4.30;;;3.30;;
32505;SDS011;18955;51.224;8.482;2022-11-27T17:03:58;6.03;;;3.75;;
32505;SDS011;18955;51.224;8.482;2022-11-27T17:06:26;6.15;;;3.63;;
32505;SDS011;18955;51.224;8.482;2022-11-27T17:08:55;7.75;;;3.70;;
32505;SDS011;18955;51.224;8.482;2022-11-27T17:11:23;12.85;;;4.38;;
32505;SDS011;18955;51.224;8.482;2022-11-27T17:13:55;5.47;;;3.70;;
32505;SDS011;18955;51.224;8.482;2022-11-27T17:16:22;9.43;;;3.97;;
32505;SDS011;18955;51.224;8.482;2022-11-27T17:18:49;6.60;;;3.30;;
32505;SDS011;18955;51.224;8.482;2022-11-27T17:21:17;5.72;;;4.00;;
32505;SDS011;18955;51.224;8.482;2022-11-27T17:23:53;7.13;;;3.90;;
32505;SDS011;18955;51.224;8.482;2022-11-27T17:26:21;9.82;;;3.72;;
32505;SDS011;18955;51.224;8.482;2022-11-27T17:28:49;7.10;;;4.00;;
32505;SDS011;18955;51.224;8.482;2022-11-27T17:31:17;7.95;;;3.42;;
32505;SDS011;18955;51.224;8.482;2022-11-27T17:33:44;6.88;;;3.95;;
32505;SDS011;18955;51.224;8.482;2022-11-27T17:36:11;5.28;;;3.90;;
32505;SDS011;18955;51.224;8.482;2022-11-27T17:38:39;7.13;;;3.60;;
32505;SDS011;18955;51.224;8.482;2022-11-27T17:41:06;5.85;;;3.65;;
32505;SDS011;18955;51.224;8.482;2022-11-27T17:43:35;6.45;;;4.13;;
32505;SDS011;18955;51.224;8.482;2022-11-27T17:46:05;7.70;;;4.05;;
32505;SDS011;18955;51.224;8.482;2022-11-27T17:48:37;6.15;;;3.80;;
32505;SDS011;18955;51.224;8.482;2022-11-27T17:51:04;6.82;;;3.33;;
32505;SDS011;18955;51.224;8.482;2022-11-27T17:53:31;7.07;;;3.95;;